Aérodrome :
LOGIN :

S'inscrire | Disclaimer

   EN    FR    IT 

 










Légende :    VFR   VFR Marginal   IFR   IFR Intensif   IFR Très Intensif
Visi : 
Plafond : 
>= 8 km
>= 3000ft
5 à 8 km
1000 à 3000 ft
1500m à 5 km
500 à 1000 ft
800 à 1500m
200 à 500 ft
< 800m
< 200 ft
Symboles :   Orages  Brouillard  Fortes neiges  Fortes précipitations  Vent > 20 kt
SIGMETs :   Divers  Orages  Givrage  Turbulence  Onde Orograph.  Cendres Volcan.







- Altitude de l'aérodrome : 779 ft
- Code IATA : CMF
- Voir les cartes d'approche


LFLB - Chambery / Aix-Les-Bains

DERNIER METAR :
  • 152030Z AUTO 03009KT CAVOK 21/13 Q1015

METARs EXPIRÉS :
  • 152000Z AUTO 36009KT CAVOK 21/13 Q1015
  • 151930Z AUTO 36011KT CAVOK 22/12 Q1014
  • 151900Z AUTO 35010KT 310V010 CAVOK 22/13 Q1014 NOSIG
  • 151830Z AUTO 35010KT CAVOK 22/13 Q1014 NOSIG
  • 151800Z AUTO 35011KT 320V030 CAVOK 23/13 Q1013 NOSIG

TAF TAF LFLB
Valide du 15 à 12h jusqu'au 16 à 12h UTC


151100Z 1512/1612 34015KT 9999 SCT050
PROB30
TEMPO 1515/1518 FEW060TCU SCT080
TEMPO 1603/1607 VRB04KT
Pas de NOTAMs connus pour ce terrain.
1 SIGMET publié pour la FIR Marseille (LFMM) :
 
Orages noyés dans la masse
LFMM SIGMET 16 VALID 152000/160000 LFPW
LFMM MARSEILLE FIR/UIR EMBD TS FCST WI N4245 E00945 - N4115 E00945 - N4115 E00845 - N4230 E00900 - N4245 E00945 TOP FL320 MOV SE 15KT WKN=



MET'MAP, la Météo Aéronautique d'un coup d'oeil ! - Copyright ORBIFLY Décembre 2007 - Disclaimer

ORBIFLY MET'MAP TEAM :

Programmation & Développement : Alexandra Zaïnal
Conception & Développement : Baudouin d'Aumeries
Co-Programmation & Développement : Marc-Olivier Méhu
Soutien technique & logistique : Manuel Goepfert

Contact : metmap@orbifly.com




SOURCES & CREDITS :

   NOAA